sensor_id;sensor_type;location;lat;lon;timestamp;P1;durP1;ratioP1;P2;durP2;ratioP2
2023;SDS011;1016;48.770;9.154;2022-09-01T00:01:13;26.17;;;14.50;;
2023;SDS011;1016;48.770;9.154;2022-09-01T00:03:45;25.97;;;15.10;;
2023;SDS011;1016;48.770;9.154;2022-09-01T00:06:12;27.73;;;16.33;;
2023;SDS011;1016;48.770;9.154;2022-09-01T00:08:46;28.40;;;14.90;;
2023;SDS011;1016;48.770;9.154;2022-09-01T00:11:15;28.20;;;15.83;;
2023;SDS011;1016;48.770;9.154;2022-09-01T00:13:41;28.80;;;15.30;;
2023;SDS011;1016;48.770;9.154;2022-09-01T00:16:07;28.40;;;16.57;;
2023;SDS011;1016;48.770;9.154;2022-09-01T00:18:37;29.77;;;16.00;;
2023;SDS011;1016;48.770;9.154;2022-09-01T00:21:07;25.60;;;15.30;;
2023;SDS011;1016;48.770;9.154;2022-09-01T00:23:34;29.70;;;15.57;;
2023;SDS011;1016;48.770;9.154;2022-09-01T00:26:00;27.97;;;15.00;;
2023;SDS011;1016;48.770;9.154;2022-09-01T00:28:26;31.03;;;15.50;;
2023;SDS011;1016;48.770;9.154;2022-09-01T00:30:51;27.63;;;16.17;;
2023;SDS011;1016;48.770;9.154;2022-09-01T00:33:17;27.57;;;16.17;;
2023;SDS011;1016;48.770;9.154;2022-09-01T00:35:43;28.37;;;16.30;;
2023;SDS011;1016;48.770;9.154;2022-09-01T00:38:09;27.73;;;16.10;;
2023;SDS011;1016;48.770;9.154;2022-09-01T00:40:34;28.90;;;15.57;;
2023;SDS011;1016;48.770;9.154;2022-09-01T00:43:00;26.93;;;15.33;;
2023;SDS011;1016;48.770;9.154;2022-09-01T00:46:00;28.00;;;15.27;;
2023;SDS011;1016;48.770;9.154;2022-09-01T00:48:26;27.07;;;15.50;;
2023;SDS011;1016;48.770;9.154;2022-09-01T00:50:52;27.23;;;15.60;;
2023;SDS011;1016;48.770;9.154;2022-09-01T00:53:18;27.93;;;15.20;;
2023;SDS011;1016;48.770;9.154;2022-09-01T00:55:43;28.17;;;15.70;;
2023;SDS011;1016;48.770;9.154;2022-09-01T00:58:09;29.97;;;15.37;;
2023;SDS011;1016;48.770;9.154;2022-09-01T01:00:36;27.63;;;15.43;;
2023;SDS011;1016;48.770;9.154;2022-09-01T01:03:08;28.47;;;15.20;;
2023;SDS011;1016;48.770;9.154;2022-09-01T01:05:36;26.70;;;14.87;;
2023;SDS011;1016;48.770;9.154;2022-09-01T01:08:04;25.60;;;14.97;;
2023;SDS011;1016;48.770;9.154;2022-09-01T01:10:32;27.00;;;14.43;;
2023;SDS011;1016;48.770;9.154;2022-09-01T01:13:07;26.00;;;14.50;;
2023;SDS011;1016;48.770;9.154;2022-09-01T01:15:39;26.80;;;13.63;;
2023;SDS011;1016;48.770;9.154;2022-09-01T01:18:08;26.50;;;14.03;;
2023;SDS011;1016;48.770;9.154;2022-09-01T01:20:37;26.50;;;14.33;;
2023;SDS011;1016;48.770;9.154;2022-09-01T01:23:38;27.10;;;14.20;;
2023;SDS011;1016;48.770;9.154;2022-09-01T01:26:12;26.13;;;13.30;;
2023;SDS011;1016;48.770;9.154;2022-09-01T01:28:40;25.60;;;13.67;;
2023;SDS011;1016;48.770;9.154;2022-09-01T01:31:10;24.67;;;12.87;;
2023;SDS011;1016;48.770;9.154;2022-09-01T01:33:42;24.30;;;12.77;;
2023;SDS011;1016;48.770;9.154;2022-09-01T01:36:14;24.63;;;12.60;;
2023;SDS011;1016;48.770;9.154;2022-09-01T01:38:43;24.43;;;13.00;;
2023;SDS011;1016;48.770;9.154;2022-09-01T01:41:11;25.93;;;13.33;;
2023;SDS011;1016;48.770;9.154;2022-09-01T01:43:37;25.77;;;12.93;;
2023;SDS011;1016;48.770;9.154;2022-09-01T01:46:05;24.17;;;12.27;;
2023;SDS011;1016;48.770;9.154;2022-09-01T01:48:32;24.17;;;12.13;;
2023;SDS011;1016;48.770;9.154;2022-09-01T01:50:58;23.77;;;13.23;;
2023;SDS011;1016;48.770;9.154;2022-09-01T01:53:25;24.40;;;12.53;;
2023;SDS011;1016;48.770;9.154;2022-09-01T01:55:52;25.00;;;11.80;;
2023;SDS011;1016;48.770;9.154;2022-09-01T01:58:18;25.37;;;12.30;;
2023;SDS011;1016;48.770;9.154;2022-09-01T02:00:46;26.03;;;12.70;;
2023;SDS011;1016;48.770;9.154;2022-09-01T02:03:17;24.80;;;12.40;;
2023;SDS011;1016;48.770;9.154;2022-09-01T02:05:46;28.93;;;12.63;;
2023;SDS011;1016;48.770;9.154;2022-09-01T02:08:13;25.07;;;12.67;;
2023;SDS011;1016;48.770;9.154;2022-09-01T02:10:41;26.93;;;13.40;;
2023;SDS011;1016;48.770;9.154;2022-09-01T02:13:09;25.83;;;14.00;;
2023;SDS011;1016;48.770;9.154;2022-09-01T02:15:41;27.80;;;13.80;;
2023;SDS011;1016;48.770;9.154;2022-09-01T02:18:19;27.23;;;13.70;;
2023;SDS011;1016;48.770;9.154;2022-09-01T02:20:48;25.90;;;12.70;;
2023;SDS011;1016;48.770;9.154;2022-09-01T02:23:15;24.87;;;12.93;;
2023;SDS011;1016;48.770;9.154;2022-09-01T02:25:47;26.20;;;13.60;;
2023;SDS011;1016;48.770;9.154;2022-09-01T02:28:15;28.40;;;13.60;;
2023;SDS011;1016;48.770;9.154;2022-09-01T02:30:42;26.47;;;12.90;;
2023;SDS011;1016;48.770;9.154;2022-09-01T02:33:10;27.13;;;12.97;;
2023;SDS011;1016;48.770;9.154;2022-09-01T02:35:43;25.80;;;13.80;;
2023;SDS011;1016;48.770;9.154;2022-09-01T02:38:10;27.43;;;14.00;;
2023;SDS011;1016;48.770;9.154;2022-09-01T02:40:38;27.40;;;14.00;;
2023;SDS011;1016;48.770;9.154;2022-09-01T02:43:08;26.77;;;13.30;;
2023;SDS011;1016;48.770;9.154;2022-09-01T02:45:35;31.67;;;15.40;;
2023;SDS011;1016;48.770;9.154;2022-09-01T02:48:02;27.27;;;14.40;;
2023;SDS011;1016;48.770;9.154;2022-09-01T02:50:31;24.50;;;12.53;;
2023;SDS011;1016;48.770;9.154;2022-09-01T02:52:57;27.10;;;13.67;;
2023;SDS011;1016;48.770;9.154;2022-09-01T02:55:24;29.93;;;13.43;;
2023;SDS011;1016;48.770;9.154;2022-09-01T02:57:50;27.47;;;14.40;;
2023;SDS011;1016;48.770;9.154;2022-09-01T03:00:21;26.83;;;14.77;;
2023;SDS011;1016;48.770;9.154;2022-09-01T03:02:54;25.87;;;13.43;;
2023;SDS011;1016;48.770;9.154;2022-09-01T03:05:21;28.10;;;14.07;;
2023;SDS011;1016;48.770;9.154;2022-09-01T03:07:53;30.90;;;14.73;;
2023;SDS011;1016;48.770;9.154;2022-09-01T03:10:24;28.07;;;14.40;;
2023;SDS011;1016;48.770;9.154;2022-09-01T03:12:55;27.47;;;13.77;;
2023;SDS011;1016;48.770;9.154;2022-09-01T03:15:21;26.13;;;13.93;;
2023;SDS011;1016;48.770;9.154;2022-09-01T03:17:47;27.27;;;14.23;;
2023;SDS011;1016;48.770;9.154;2022-09-01T03:20:14;26.90;;;14.80;;
2023;SDS011;1016;48.770;9.154;2022-09-01T03:22:40;27.60;;;13.77;;
2023;SDS011;1016;48.770;9.154;2022-09-01T03:25:07;27.90;;;13.90;;
2023;SDS011;1016;48.770;9.154;2022-09-01T03:27:33;26.63;;;14.03;;
2023;SDS011;1016;48.770;9.154;2022-09-01T03:29:59;28.37;;;14.20;;
2023;SDS011;1016;48.770;9.154;2022-09-01T03:32:24;27.67;;;13.67;;
2023;SDS011;1016;48.770;9.154;2022-09-01T03:34:50;27.00;;;14.07;;
2023;SDS011;1016;48.770;9.154;2022-09-01T03:37:16;29.30;;;15.00;;
2023;SDS011;1016;48.770;9.154;2022-09-01T03:39:42;28.93;;;14.10;;
2023;SDS011;1016;48.770;9.154;2022-09-01T03:42:08;27.80;;;13.70;;
2023;SDS011;1016;48.770;9.154;2022-09-01T03:44:43;26.50;;;14.00;;
2023;SDS011;1016;48.770;9.154;2022-09-01T03:47:08;26.50;;;14.23;;
2023;SDS011;1016;48.770;9.154;2022-09-01T03:49:35;27.20;;;14.53;;
2023;SDS011;1016;48.770;9.154;2022-09-01T03:52:03;26.33;;;14.50;;
2023;SDS011;1016;48.770;9.154;2022-09-01T03:54:32;27.70;;;15.50;;
2023;SDS011;1016;48.770;9.154;2022-09-01T03:56:58;28.50;;;14.37;;
2023;SDS011;1016;48.770;9.154;2022-09-01T03:59:24;26.97;;;14.27;;
2023;SDS011;1016;48.770;9.154;2022-09-01T04:01:51;30.07;;;14.80;;
2023;SDS011;1016;48.770;9.154;2022-09-01T04:04:17;27.93;;;14.30;;
2023;SDS011;1016;48.770;9.154;2022-09-01T04:06:43;26.70;;;15.00;;
2023;SDS011;1016;48.770;9.154;2022-09-01T04:09:09;27.77;;;15.37;;
2023;SDS011;1016;48.770;9.154;2022-09-01T04:11:36;29.30;;;14.63;;
2023;SDS011;1016;48.770;9.154;2022-09-01T04:14:03;31.43;;;15.83;;
2023;SDS011;1016;48.770;9.154;2022-09-01T04:16:30;28.27;;;14.00;;
2023;SDS011;1016;48.770;9.154;2022-09-01T04:19:21;29.67;;;15.37;;
2023;SDS011;1016;48.770;9.154;2022-09-01T04:21:51;26.70;;;15.43;;
2023;SDS011;1016;48.770;9.154;2022-09-01T04:24:18;29.10;;;15.93;;
2023;SDS011;1016;48.770;9.154;2022-09-01T04:26:44;27.60;;;15.33;;
2023;SDS011;1016;48.770;9.154;2022-09-01T04:29:12;27.97;;;15.23;;
2023;SDS011;1016;48.770;9.154;2022-09-01T04:31:38;27.23;;;15.00;;
2023;SDS011;1016;48.770;9.154;2022-09-01T04:34:05;27.20;;;14.53;;
2023;SDS011;1016;48.770;9.154;2022-09-01T04:36:37;27.77;;;15.10;;
2023;SDS011;1016;48.770;9.154;2022-09-01T04:39:05;28.20;;;15.70;;
2023;SDS011;1016;48.770;9.154;2022-09-01T04:41:33;26.50;;;14.53;;
2023;SDS011;1016;48.770;9.154;2022-09-01T04:44:02;30.00;;;15.47;;
2023;SDS011;1016;48.770;9.154;2022-09-01T04:46:30;30.37;;;16.00;;
2023;SDS011;1016;48.770;9.154;2022-09-01T04:48:59;32.00;;;16.07;;
2023;SDS011;1016;48.770;9.154;2022-09-01T04:51:30;27.30;;;15.27;;
2023;SDS011;1016;48.770;9.154;2022-09-01T04:53:56;29.60;;;16.47;;
2023;SDS011;1016;48.770;9.154;2022-09-01T04:56:22;29.70;;;15.93;;
2023;SDS011;1016;48.770;9.154;2022-09-01T04:58:51;29.80;;;14.70;;
2023;SDS011;1016;48.770;9.154;2022-09-01T05:01:21;27.73;;;15.10;;
2023;SDS011;1016;48.770;9.154;2022-09-01T05:03:50;30.30;;;14.87;;
2023;SDS011;1016;48.770;9.154;2022-09-01T05:06:26;28.67;;;15.00;;
2023;SDS011;1016;48.770;9.154;2022-09-01T05:08:53;29.70;;;15.57;;
2023;SDS011;1016;48.770;9.154;2022-09-01T05:11:21;28.63;;;16.70;;
2023;SDS011;1016;48.770;9.154;2022-09-01T05:13:48;32.10;;;15.37;;
2023;SDS011;1016;48.770;9.154;2022-09-01T05:16:15;28.13;;;16.00;;
2023;SDS011;1016;48.770;9.154;2022-09-01T05:18:43;27.60;;;15.47;;
2023;SDS011;1016;48.770;9.154;2022-09-01T05:21:12;28.60;;;14.90;;
2023;SDS011;1016;48.770;9.154;2022-09-01T05:23:41;29.27;;;15.23;;
2023;SDS011;1016;48.770;9.154;2022-09-01T05:26:11;28.60;;;15.70;;
2023;SDS011;1016;48.770;9.154;2022-09-01T05:28:49;26.83;;;14.50;;
2023;SDS011;1016;48.770;9.154;2022-09-01T05:31:17;29.30;;;15.93;;
2023;SDS011;1016;48.770;9.154;2022-09-01T05:33:44;27.60;;;15.10;;
2023;SDS011;1016;48.770;9.154;2022-09-01T05:36:12;28.80;;;15.93;;
2023;SDS011;1016;48.770;9.154;2022-09-01T05:38:40;27.90;;;15.50;;
2023;SDS011;1016;48.770;9.154;2022-09-01T05:41:06;29.53;;;14.90;;
2023;SDS011;1016;48.770;9.154;2022-09-01T05:43:33;28.07;;;15.20;;
2023;SDS011;1016;48.770;9.154;2022-09-01T05:46:00;27.70;;;15.40;;
2023;SDS011;1016;48.770;9.154;2022-09-01T05:48:30;29.20;;;16.83;;
2023;SDS011;1016;48.770;9.154;2022-09-01T05:50:56;28.33;;;16.53;;
2023;SDS011;1016;48.770;9.154;2022-09-01T05:53:24;27.13;;;15.30;;
2023;SDS011;1016;48.770;9.154;2022-09-01T05:55:53;31.30;;;16.03;;
2023;SDS011;1016;48.770;9.154;2022-09-01T05:58:21;29.53;;;15.90;;
2023;SDS011;1016;48.770;9.154;2022-09-01T06:00:50;30.00;;;16.10;;
2023;SDS011;1016;48.770;9.154;2022-09-01T06:03:18;27.90;;;15.17;;
2023;SDS011;1016;48.770;9.154;2022-09-01T06:05:46;29.70;;;15.23;;
2023;SDS011;1016;48.770;9.154;2022-09-01T06:08:16;27.70;;;15.17;;
2023;SDS011;1016;48.770;9.154;2022-09-01T06:10:44;29.97;;;16.87;;
2023;SDS011;1016;48.770;9.154;2022-09-01T06:13:10;34.37;;;16.23;;
2023;SDS011;1016;48.770;9.154;2022-09-01T06:15:39;31.30;;;18.37;;
2023;SDS011;1016;48.770;9.154;2022-09-01T06:18:06;27.47;;;16.27;;
2023;SDS011;1016;48.770;9.154;2022-09-01T06:20:33;29.73;;;17.10;;
2023;SDS011;1016;48.770;9.154;2022-09-01T06:23:04;29.40;;;17.20;;
2023;SDS011;1016;48.770;9.154;2022-09-01T06:25:30;29.73;;;16.60;;
2023;SDS011;1016;48.770;9.154;2022-09-01T06:27:55;31.00;;;17.63;;
2023;SDS011;1016;48.770;9.154;2022-09-01T06:30:21;28.87;;;16.00;;
2023;SDS011;1016;48.770;9.154;2022-09-01T06:32:50;28.27;;;16.47;;
2023;SDS011;1016;48.770;9.154;2022-09-01T06:35:17;28.43;;;16.93;;
2023;SDS011;1016;48.770;9.154;2022-09-01T06:37:43;29.77;;;16.30;;
2023;SDS011;1016;48.770;9.154;2022-09-01T06:40:10;29.93;;;16.20;;
2023;SDS011;1016;48.770;9.154;2022-09-01T06:42:51;26.80;;;15.60;;
2023;SDS011;1016;48.770;9.154;2022-09-01T06:45:18;26.60;;;15.60;;
2023;SDS011;1016;48.770;9.154;2022-09-01T06:47:46;27.70;;;15.33;;
2023;SDS011;1016;48.770;9.154;2022-09-01T06:50:15;27.00;;;14.57;;
2023;SDS011;1016;48.770;9.154;2022-09-01T06:52:45;28.33;;;15.57;;
2023;SDS011;1016;48.770;9.154;2022-09-01T06:55:11;29.30;;;15.67;;
2023;SDS011;1016;48.770;9.154;2022-09-01T06:57:38;28.13;;;15.03;;
2023;SDS011;1016;48.770;9.154;2022-09-01T07:00:09;28.13;;;15.73;;
2023;SDS011;1016;48.770;9.154;2022-09-01T07:02:44;28.30;;;15.47;;
2023;SDS011;1016;48.770;9.154;2022-09-01T07:05:10;28.20;;;15.77;;
2023;SDS011;1016;48.770;9.154;2022-09-01T07:07:41;30.53;;;15.43;;
2023;SDS011;1016;48.770;9.154;2022-09-01T07:10:10;29.97;;;14.80;;
2023;SDS011;1016;48.770;9.154;2022-09-01T07:12:38;28.00;;;15.40;;
2023;SDS011;1016;48.770;9.154;2022-09-01T07:15:10;29.20;;;15.93;;
2023;SDS011;1016;48.770;9.154;2022-09-01T07:17:37;28.10;;;15.13;;
2023;SDS011;1016;48.770;9.154;2022-09-01T07:20:03;27.00;;;15.20;;
2023;SDS011;1016;48.770;9.154;2022-09-01T07:22:29;28.27;;;15.77;;
2023;SDS011;1016;48.770;9.154;2022-09-01T07:24:54;26.57;;;14.23;;
2023;SDS011;1016;48.770;9.154;2022-09-01T07:27:21;26.00;;;13.67;;
2023;SDS011;1016;48.770;9.154;2022-09-01T07:29:50;29.60;;;14.70;;
2023;SDS011;1016;48.770;9.154;2022-09-01T07:32:19;28.77;;;13.30;;
2023;SDS011;1016;48.770;9.154;2022-09-01T07:34:45;26.83;;;13.50;;
2023;SDS011;1016;48.770;9.154;2022-09-01T07:37:10;24.20;;;12.17;;
2023;SDS011;1016;48.770;9.154;2022-09-01T07:39:37;24.10;;;11.17;;
2023;SDS011;1016;48.770;9.154;2022-09-01T07:42:09;31.40;;;16.80;;
2023;SDS011;1016;48.770;9.154;2022-09-01T07:44:36;25.13;;;10.20;;
2023;SDS011;1016;48.770;9.154;2022-09-01T07:47:03;25.87;;;11.00;;
2023;SDS011;1016;48.770;9.154;2022-09-01T07:49:33;24.13;;;11.40;;
2023;SDS011;1016;48.770;9.154;2022-09-01T07:52:02;23.63;;;10.80;;
2023;SDS011;1016;48.770;9.154;2022-09-01T07:54:28;25.50;;;12.80;;
2023;SDS011;1016;48.770;9.154;2022-09-01T07:56:54;24.53;;;11.73;;
2023;SDS011;1016;48.770;9.154;2022-09-01T07:59:20;30.93;;;17.30;;
2023;SDS011;1016;48.770;9.154;2022-09-01T08:01:46;24.00;;;11.20;;
2023;SDS011;1016;48.770;9.154;2022-09-01T08:04:12;24.50;;;11.90;;
2023;SDS011;1016;48.770;9.154;2022-09-01T08:06:38;24.30;;;11.87;;
2023;SDS011;1016;48.770;9.154;2022-09-01T08:09:04;23.60;;;11.70;;
2023;SDS011;1016;48.770;9.154;2022-09-01T08:11:34;25.63;;;12.17;;
2023;SDS011;1016;48.770;9.154;2022-09-01T08:14:00;25.20;;;12.10;;
2023;SDS011;1016;48.770;9.154;2022-09-01T08:16:27;24.10;;;10.83;;
2023;SDS011;1016;48.770;9.154;2022-09-01T08:18:54;23.23;;;10.33;;
2023;SDS011;1016;48.770;9.154;2022-09-01T08:21:21;23.57;;;11.17;;
2023;SDS011;1016;48.770;9.154;2022-09-01T08:23:48;24.87;;;10.73;;
2023;SDS011;1016;48.770;9.154;2022-09-01T08:26:16;23.77;;;11.37;;
2023;SDS011;1016;48.770;9.154;2022-09-01T08:28:44;25.07;;;10.37;;
2023;SDS011;1016;48.770;9.154;2022-09-01T08:31:11;23.60;;;10.20;;
2023;SDS011;1016;48.770;9.154;2022-09-01T08:33:40;26.40;;;13.07;;
2023;SDS011;1016;48.770;9.154;2022-09-01T08:36:06;23.80;;;10.43;;
2023;SDS011;1016;48.770;9.154;2022-09-01T08:38:34;22.47;;;9.80;;
2023;SDS011;1016;48.770;9.154;2022-09-01T08:41:00;23.57;;;9.20;;
2023;SDS011;1016;48.770;9.154;2022-09-01T08:43:33;23.00;;;8.87;;
2023;SDS011;1016;48.770;9.154;2022-09-01T08:48:39;22.50;;;9.40;;
2023;SDS011;1016;48.770;9.154;2022-09-01T08:53:46;21.83;;;9.40;;
2023;SDS011;1016;48.770;9.154;2022-09-01T08:56:20;21.70;;;8.33;;
2023;SDS011;1016;48.770;9.154;2022-09-01T08:58:47;23.63;;;9.90;;
2023;SDS011;1016;48.770;9.154;2022-09-01T09:01:56;24.13;;;10.30;;
2023;SDS011;1016;48.770;9.154;2022-09-01T09:04:39;24.23;;;10.30;;
2023;SDS011;1016;48.770;9.154;2022-09-01T09:12:46;23.07;;;9.13;;
2023;SDS011;1016;48.770;9.154;2022-09-01T09:18:20;22.13;;;9.00;;
2023;SDS011;1016;48.770;9.154;2022-09-01T09:21:01;21.87;;;8.90;;
2023;SDS011;1016;48.770;9.154;2022-09-01T09:23:41;21.20;;;7.90;;
2023;SDS011;1016;48.770;9.154;2022-09-01T09:26:14;24.43;;;11.13;;
2023;SDS011;1016;48.770;9.154;2022-09-01T09:28:42;21.77;;;8.47;;
2023;SDS011;1016;48.770;9.154;2022-09-01T09:31:24;22.07;;;8.23;;
2023;SDS011;1016;48.770;9.154;2022-09-01T09:33:50;21.20;;;7.73;;
2023;SDS011;1016;48.770;9.154;2022-09-01T09:36:20;21.40;;;7.90;;
2023;SDS011;1016;48.770;9.154;2022-09-01T09:39:02;23.90;;;8.60;;
2023;SDS011;1016;48.770;9.154;2022-09-01T09:41:30;21.53;;;8.10;;
2023;SDS011;1016;48.770;9.154;2022-09-01T09:43:59;21.80;;;8.13;;
2023;SDS011;1016;48.770;9.154;2022-09-01T09:46:44;21.47;;;8.07;;
2023;SDS011;1016;48.770;9.154;2022-09-01T09:51:41;23.10;;;8.63;;
2023;SDS011;1016;48.770;9.154;2022-09-01T09:54:19;23.77;;;9.10;;
2023;SDS011;1016;48.770;9.154;2022-09-01T09:59:46;21.07;;;7.93;;
2023;SDS011;1016;48.770;9.154;2022-09-01T10:02:23;22.47;;;8.73;;
2023;SDS011;1016;48.770;9.154;2022-09-01T10:04:49;22.67;;;7.80;;
2023;SDS011;1016;48.770;9.154;2022-09-01T10:07:27;21.10;;;7.80;;
2023;SDS011;1016;48.770;9.154;2022-09-01T10:10:00;22.70;;;8.50;;
2023;SDS011;1016;48.770;9.154;2022-09-01T10:12:29;22.23;;;7.73;;
2023;SDS011;1016;48.770;9.154;2022-09-01T10:17:34;21.83;;;7.10;;
2023;SDS011;1016;48.770;9.154;2022-09-01T10:20:07;20.53;;;7.00;;
2023;SDS011;1016;48.770;9.154;2022-09-01T10:22:37;20.13;;;6.60;;
2023;SDS011;1016;48.770;9.154;2022-09-01T10:25:04;20.90;;;6.27;;
2023;SDS011;1016;48.770;9.154;2022-09-01T10:27:34;20.00;;;6.00;;
2023;SDS011;1016;48.770;9.154;2022-09-01T10:30:16;20.00;;;6.03;;
2023;SDS011;1016;48.770;9.154;2022-09-01T10:32:44;20.37;;;6.43;;
2023;SDS011;1016;48.770;9.154;2022-09-01T10:35:17;20.63;;;5.80;;
2023;SDS011;1016;48.770;9.154;2022-09-01T10:37:53;19.97;;;5.53;;
2023;SDS011;1016;48.770;9.154;2022-09-01T10:42:57;20.17;;;6.37;;
2023;SDS011;1016;48.770;9.154;2022-09-01T10:47:56;19.73;;;5.50;;
2023;SDS011;1016;48.770;9.154;2022-09-01T10:50:43;20.00;;;6.20;;
2023;SDS011;1016;48.770;9.154;2022-09-01T10:53:11;20.43;;;5.30;;
2023;SDS011;1016;48.770;9.154;2022-09-01T10:56:07;20.33;;;5.93;;
2023;SDS011;1016;48.770;9.154;2022-09-01T10:58:47;18.90;;;4.73;;
2023;SDS011;1016;48.770;9.154;2022-09-01T11:04:04;19.53;;;4.80;;
2023;SDS011;1016;48.770;9.154;2022-09-01T11:09:06;19.07;;;5.00;;
2023;SDS011;1016;48.770;9.154;2022-09-01T11:14:48;20.47;;;4.97;;
2023;SDS011;1016;48.770;9.154;2022-09-01T11:19:54;18.93;;;4.50;;
2023;SDS011;1016;48.770;9.154;2022-09-01T11:28:34;19.20;;;4.83;;
2023;SDS011;1016;48.770;9.154;2022-09-01T11:30:55;20.00;;;5.80;;
2023;SDS011;1016;48.770;9.154;2022-09-01T11:44:50;22.63;;;5.83;;
2023;SDS011;1016;48.770;9.154;2022-09-01T11:47:24;20.80;;;6.13;;
2023;SDS011;1016;48.770;9.154;2022-09-01T11:52:30;19.10;;;4.80;;
2023;SDS011;1016;48.770;9.154;2022-09-01T11:54:59;20.07;;;5.17;;
2023;SDS011;1016;48.770;9.154;2022-09-01T11:59:52;21.47;;;6.80;;
2023;SDS011;1016;48.770;9.154;2022-09-01T12:02:23;32.57;;;15.93;;
2023;SDS011;1016;48.770;9.154;2022-09-01T12:04:54;19.17;;;4.50;;
2023;SDS011;1016;48.770;9.154;2022-09-01T12:07:41;18.20;;;4.30;;
2023;SDS011;1016;48.770;9.154;2022-09-01T12:10:14;19.30;;;5.10;;
2023;SDS011;1016;48.770;9.154;2022-09-01T12:12:44;19.93;;;4.83;;
2023;SDS011;1016;48.770;9.154;2022-09-01T12:15:17;18.90;;;4.50;;
2023;SDS011;1016;48.770;9.154;2022-09-01T12:17:50;18.90;;;4.53;;
2023;SDS011;1016;48.770;9.154;2022-09-01T12:20:38;18.30;;;4.10;;
2023;SDS011;1016;48.770;9.154;2022-09-01T12:23:12;18.87;;;4.07;;
2023;SDS011;1016;48.770;9.154;2022-09-01T12:25:46;19.47;;;4.03;;
2023;SDS011;1016;48.770;9.154;2022-09-01T12:28:12;18.37;;;4.00;;
2023;SDS011;1016;48.770;9.154;2022-09-01T12:30:39;18.33;;;4.13;;
2023;SDS011;1016;48.770;9.154;2022-09-01T12:33:09;18.10;;;3.80;;
2023;SDS011;1016;48.770;9.154;2022-09-01T12:35:36;20.07;;;5.20;;
2023;SDS011;1016;48.770;9.154;2022-09-01T12:40:47;19.17;;;4.40;;
2023;SDS011;1016;48.770;9.154;2022-09-01T12:43:28;18.80;;;4.40;;
2023;SDS011;1016;48.770;9.154;2022-09-01T12:45:55;19.57;;;4.80;;
2023;SDS011;1016;48.770;9.154;2022-09-01T12:50:54;19.03;;;4.40;;
2023;SDS011;1016;48.770;9.154;2022-09-01T12:53:22;19.07;;;4.43;;
2023;SDS011;1016;48.770;9.154;2022-09-01T12:55:59;21.40;;;4.10;;
2023;SDS011;1016;48.770;9.154;2022-09-01T12:58:30;20.20;;;4.70;;
2023;SDS011;1016;48.770;9.154;2022-09-01T13:00:57;19.20;;;4.23;;
2023;SDS011;1016;48.770;9.154;2022-09-01T13:03:23;19.37;;;4.50;;
2023;SDS011;1016;48.770;9.154;2022-09-01T13:05:55;18.57;;;4.70;;
2023;SDS011;1016;48.770;9.154;2022-09-01T13:08:24;18.93;;;4.40;;
2023;SDS011;1016;48.770;9.154;2022-09-01T13:11:02;19.43;;;4.37;;
2023;SDS011;1016;48.770;9.154;2022-09-01T13:13:30;18.60;;;4.20;;
2023;SDS011;1016;48.770;9.154;2022-09-01T13:15:59;18.77;;;4.40;;
2023;SDS011;1016;48.770;9.154;2022-09-01T13:18:28;19.83;;;3.83;;
2023;SDS011;1016;48.770;9.154;2022-09-01T13:20:54;20.27;;;3.53;;
2023;SDS011;1016;48.770;9.154;2022-09-01T13:23:21;17.70;;;3.83;;
2023;SDS011;1016;48.770;9.154;2022-09-01T13:25:47;18.37;;;3.90;;
2023;SDS011;1016;48.770;9.154;2022-09-01T13:28:13;18.10;;;4.67;;
2023;SDS011;1016;48.770;9.154;2022-09-01T13:30:42;19.20;;;4.33;;
2023;SDS011;1016;48.770;9.154;2022-09-01T13:33:10;18.57;;;4.10;;
2023;SDS011;1016;48.770;9.154;2022-09-01T13:35:36;18.63;;;4.53;;
2023;SDS011;1016;48.770;9.154;2022-09-01T13:38:02;19.30;;;4.27;;
2023;SDS011;1016;48.770;9.154;2022-09-01T13:40:29;19.20;;;4.43;;
2023;SDS011;1016;48.770;9.154;2022-09-01T13:42:55;18.40;;;3.63;;
2023;SDS011;1016;48.770;9.154;2022-09-01T13:45:22;19.10;;;4.50;;
2023;SDS011;1016;48.770;9.154;2022-09-01T13:47:49;18.60;;;3.87;;
2023;SDS011;1016;48.770;9.154;2022-09-01T13:50:17;20.00;;;4.27;;
2023;SDS011;1016;48.770;9.154;2022-09-01T13:52:48;21.03;;;4.03;;
2023;SDS011;1016;48.770;9.154;2022-09-01T13:55:17;19.60;;;3.77;;
2023;SDS011;1016;48.770;9.154;2022-09-01T13:57:45;18.53;;;3.73;;
2023;SDS011;1016;48.770;9.154;2022-09-01T14:00:12;17.80;;;3.70;;
2023;SDS011;1016;48.770;9.154;2022-09-01T14:02:42;18.53;;;4.00;;
2023;SDS011;1016;48.770;9.154;2022-09-01T14:05:17;19.23;;;3.27;;
2023;SDS011;1016;48.770;9.154;2022-09-01T14:07:45;18.30;;;4.47;;
2023;SDS011;1016;48.770;9.154;2022-09-01T14:10:12;20.23;;;4.07;;
2023;SDS011;1016;48.770;9.154;2022-09-01T14:12:38;19.30;;;3.90;;
2023;SDS011;1016;48.770;9.154;2022-09-01T14:15:06;19.73;;;4.30;;
2023;SDS011;1016;48.770;9.154;2022-09-01T14:17:33;19.80;;;4.10;;
2023;SDS011;1016;48.770;9.154;2022-09-01T14:19:59;18.77;;;4.10;;
2023;SDS011;1016;48.770;9.154;2022-09-01T14:22:25;17.33;;;3.90;;
2023;SDS011;1016;48.770;9.154;2022-09-01T14:24:51;19.43;;;4.17;;
2023;SDS011;1016;48.770;9.154;2022-09-01T14:27:16;18.07;;;3.57;;
2023;SDS011;1016;48.770;9.154;2022-09-01T14:29:42;18.47;;;4.30;;
2023;SDS011;1016;48.770;9.154;2022-09-01T14:32:12;19.80;;;5.70;;
2023;SDS011;1016;48.770;9.154;2022-09-01T14:34:38;19.90;;;4.30;;
2023;SDS011;1016;48.770;9.154;2022-09-01T14:37:03;19.43;;;3.60;;
2023;SDS011;1016;48.770;9.154;2022-09-01T14:39:29;17.90;;;3.60;;
2023;SDS011;1016;48.770;9.154;2022-09-01T14:41:55;18.65;;;3.50;;
2023;SDS011;1016;48.770;9.154;2022-09-01T14:44:20;19.25;;;3.28;;
2023;SDS011;1016;48.770;9.154;2022-09-01T14:46:46;17.20;;;3.47;;
2023;SDS011;1016;48.770;9.154;2022-09-01T14:49:11;17.33;;;3.40;;
2023;SDS011;1016;48.770;9.154;2022-09-01T14:51:37;17.07;;;3.30;;
2023;SDS011;1016;48.770;9.154;2022-09-01T14:54:03;17.20;;;4.10;;
2023;SDS011;1016;48.770;9.154;2022-09-01T14:56:29;17.70;;;3.40;;
2023;SDS011;1016;48.770;9.154;2022-09-01T14:58:54;17.92;;;3.40;;
2023;SDS011;1016;48.770;9.154;2022-09-01T15:01:24;18.10;;;3.30;;
2023;SDS011;1016;48.770;9.154;2022-09-01T15:03:51;18.00;;;3.45;;
2023;SDS011;1016;48.770;9.154;2022-09-01T15:06:18;18.55;;;3.10;;
2023;SDS011;1016;48.770;9.154;2022-09-01T15:08:45;18.07;;;3.47;;
2023;SDS011;1016;48.770;9.154;2022-09-01T15:11:13;18.02;;;3.30;;
2023;SDS011;1016;48.770;9.154;2022-09-01T15:13:40;19.17;;;3.20;;
2023;SDS011;1016;48.770;9.154;2022-09-01T15:16:13;18.30;;;3.70;;
2023;SDS011;1016;48.770;9.154;2022-09-01T15:18:40;18.20;;;3.50;;
2023;SDS011;1016;48.770;9.154;2022-09-01T15:21:06;20.77;;;4.45;;
2023;SDS011;1016;48.770;9.154;2022-09-01T15:23:33;21.95;;;7.18;;
2023;SDS011;1016;48.770;9.154;2022-09-01T15:25:58;19.47;;;4.23;;
2023;SDS011;1016;48.770;9.154;2022-09-01T15:28:24;18.30;;;3.50;;
2023;SDS011;1016;48.770;9.154;2022-09-01T15:30:51;18.30;;;3.20;;
2023;SDS011;1016;48.770;9.154;2022-09-01T15:33:18;17.65;;;3.10;;
2023;SDS011;1016;48.770;9.154;2022-09-01T15:35:44;19.35;;;3.58;;
2023;SDS011;1016;48.770;9.154;2022-09-01T15:38:11;18.10;;;3.28;;
2023;SDS011;1016;48.770;9.154;2022-09-01T15:40:38;18.40;;;3.47;;
2023;SDS011;1016;48.770;9.154;2022-09-01T15:43:05;18.20;;;3.50;;
2023;SDS011;1016;48.770;9.154;2022-09-01T15:45:31;18.60;;;3.67;;
2023;SDS011;1016;48.770;9.154;2022-09-01T15:47:57;18.33;;;3.65;;
2023;SDS011;1016;48.770;9.154;2022-09-01T15:50:23;19.90;;;3.75;;
2023;SDS011;1016;48.770;9.154;2022-09-01T15:52:51;19.10;;;3.40;;
2023;SDS011;1016;48.770;9.154;2022-09-01T15:55:23;19.20;;;3.60;;
2023;SDS011;1016;48.770;9.154;2022-09-01T15:57:51;18.05;;;3.60;;
2023;SDS011;1016;48.770;9.154;2022-09-01T16:00:18;17.07;;;3.20;;
2023;SDS011;1016;48.770;9.154;2022-09-01T16:02:45;19.10;;;3.80;;
2023;SDS011;1016;48.770;9.154;2022-09-01T16:05:11;18.35;;;3.63;;
2023;SDS011;1016;48.770;9.154;2022-09-01T16:07:38;17.97;;;3.80;;
2023;SDS011;1016;48.770;9.154;2022-09-01T16:10:04;19.20;;;3.72;;